Time;durP1;ratioP1;P1;durP2;ratioP2;P2;SDS_P1;SDS_P2;PMS_P1;PMS_P2;Temp;Humidity;BMP_temperature;BMP_pressure;BME280_temperature;BME280_humidity;BME280_pressure;Samples;Min_cycle;Max_cycle;Signal;HPM_P1;HPM_P2
2022/07/27 00:00:10;;;;;;;4.65;1.83;;;14.20;99.90;;;;;;5012084;28;20109;-74
2022/07/27 00:02:36;;;;;;;6.20;2.05;;;14.10;99.90;;;;;;5040245;23;20050;-90
2022/07/27 00:05:02;;;;;;;7.18;1.90;;;14.00;99.90;;;;;;4999674;28;20034;-90
2022/07/27 00:07:28;;;;;;;3.28;2.30;;;14.00;99.90;;;;;;5013483;28;20036;-90
2022/07/27 00:09:53;;;;;;;5.15;2.38;;;14.00;99.90;;;;;;5007232;28;20029;-91
2022/07/27 00:12:19;;;;;;;4.00;2.10;;;14.00;99.90;;;;;;5003410;28;20026;-90
2022/07/27 00:14:45;;;;;;;4.05;2.17;;;14.00;99.90;;;;;;5002336;28;20498;-90
2022/07/27 00:17:10;;;;;;;3.38;1.98;;;14.00;99.90;;;;;;5008649;28;20025;-90
2022/07/27 00:19:36;;;;;;;4.53;1.73;;;14.00;99.90;;;;;;5005003;28;20467;-91
2022/07/27 00:22:02;;;;;;;3.67;1.88;;;14.00;99.90;;;;;;5006608;28;20019;-90
2022/07/27 00:24:28;;;;;;;3.17;1.73;;;13.90;99.90;;;;;;5008065;28;20022;-90
2022/07/27 00:26:53;;;;;;;8.40;3.25;;;13.80;99.90;;;;;;5001468;28;20026;-89
2022/07/27 00:29:19;;;;;;;4.03;2.60;;;13.80;99.90;;;;;;5002173;28;20030;-90
2022/07/27 00:31:45;;;;;;;4.72;2.65;;;13.90;99.90;;;;;;5011455;28;20100;-91
2022/07/27 00:34:11;;;;;;;5.47;2.08;;;13.90;99.90;;;;;;5006929;28;20045;-90
2022/07/27 00:36:36;;;;;;;4.75;2.17;;;13.90;99.90;;;;;;4999283;28;20031;-90
2022/07/27 00:39:02;;;;;;;3.28;2.30;;;14.00;99.90;;;;;;4995033;28;20502;-91
2022/07/27 00:41:28;;;;;;;3.63;2.13;;;14.00;99.90;;;;;;5005012;28;20096;-88
2022/07/27 00:43:58;;;;;;;5.13;2.80;;;13.90;99.90;;;;;;5004992;28;20386;-90
2022/07/27 00:46:25;;;;;;;5.82;2.30;;;13.90;99.90;;;;;;4994482;28;20018;-90
2022/07/27 00:48:51;;;;;;;4.18;1.77;;;13.90;99.90;;;;;;4998522;28;20030;-90
2022/07/27 00:51:18;;;;;;;7.60;1.80;;;13.90;99.90;;;;;;5004088;28;20533;-89
2022/07/27 00:53:45;;;;;;;5.57;2.10;;;14.00;99.90;;;;;;4999820;28;20026;-89
2022/07/27 00:56:11;;;;;;;6.13;2.17;;;14.00;99.90;;;;;;5001712;28;20046;-89
2022/07/27 00:58:38;;;;;;;5.03;1.85;;;14.00;99.90;;;;;;5007863;28;20487;-88
2022/07/27 01:03:32;;;;;;;4.53;1.92;;;14.00;99.90;;;;;;4969678;28;19922;-75
2022/07/27 01:05:58;;;;;;;11.48;2.45;;;14.00;99.90;;;;;;4971133;28;20031;-74
2022/07/27 01:08:24;;;;;;;5.78;1.85;;;14.00;99.90;;;;;;4972848;28;20030;-74
2022/07/27 01:10:53;;;;;;;2.78;1.30;;;14.10;99.90;;;;;;4973284;28;20019;-75
2022/07/27 01:13:20;;;;;;;6.10;1.60;;;14.00;99.90;;;;;;4953468;28;20478;-74
2022/07/27 01:15:46;;;;;;;4.28;1.70;;;14.10;99.90;;;;;;4953047;28;20477;-75
2022/07/27 01:18:29;;;;;;;3.22;1.35;;;14.00;99.90;;;;;;4953260;29;20113;-75
2022/07/27 01:20:56;;;;;;;2.67;1.40;;;14.10;99.90;;;;;;4953284;28;20031;-74
2022/07/27 01:23:23;;;;;;;2.53;1.75;;;14.00;99.90;;;;;;4953039;28;20055;-74
2022/07/27 01:25:49;;;;;;;5.10;1.90;;;14.00;99.90;;;;;;4952964;28;20078;-75
2022/07/27 01:28:14;;;;;;;5.03;1.70;;;14.10;99.90;;;;;;4953125;28;20031;-75
2022/07/27 01:30:40;;;;;;;7.75;1.65;;;14.10;99.90;;;;;;4953009;28;20042;-75
2022/07/27 01:33:08;;;;;;;3.58;1.83;;;14.10;99.90;;;;;;4952646;28;20139;-74
2022/07/27 01:35:35;;;;;;;3.25;1.52;;;14.00;99.90;;;;;;4952892;29;20018;-75
2022/07/27 01:38:02;;;;;;;3.33;1.40;;;14.00;99.90;;;;;;4952553;29;20078;-73
2022/07/27 01:40:28;;;;;;;2.83;1.35;;;14.00;99.90;;;;;;4952979;28;20078;-75
2022/07/27 01:42:54;;;;;;;4.50;1.50;;;14.00;99.90;;;;;;4952825;29;20098;-75
2022/07/27 01:45:20;;;;;;;2.83;1.40;;;13.90;99.90;;;;;;4953243;28;20577;-74
2022/07/27 01:47:46;;;;;;;7.97;1.70;;;14.00;99.90;;;;;;4952702;28;20078;-75
2022/07/27 01:50:12;;;;;;;5.13;1.67;;;14.00;99.90;;;;;;4952894;28;20016;-74
2022/07/27 01:52:38;;;;;;;3.38;1.40;;;14.00;99.90;;;;;;4953108;28;20019;-74
2022/07/27 01:55:09;;;;;;;5.57;2.20;;;14.00;99.90;;;;;;4952601;29;20019;-74
2022/07/27 01:57:36;;;;;;;7.28;2.08;;;14.00;99.90;;;;;;4951988;28;20166;-75
2022/07/27 02:00:04;;;;;;;3.20;1.88;;;14.00;99.90;;;;;;4952551;28;20506;-74
2022/07/27 02:02:30;;;;;;;6.32;1.80;;;14.00;99.90;;;;;;5018210;23;20033;-89
2022/07/27 02:04:56;;;;;;;6.90;3.30;;;14.00;99.90;;;;;;5041311;28;20026;-89
2022/07/27 02:07:21;;;;;;;3.78;1.60;;;14.10;99.90;;;;;;5044119;28;20021;-90
2022/07/27 02:09:47;;;;;;;7.55;2.05;;;14.10;99.90;;;;;;5036835;28;20056;-90
2022/07/27 02:14:57;;;;;;;3.83;1.85;;;14.10;99.90;;;;;;5040832;28;20343;-90
2022/07/27 02:17:23;;;;;;;4.38;1.98;;;14.10;99.90;;;;;;5044627;28;20104;-89
2022/07/27 02:19:48;;;;;;;7.20;1.80;;;14.10;99.90;;;;;;5038293;28;20087;-89
2022/07/27 02:22:14;;;;;;;8.85;2.42;;;14.10;99.90;;;;;;5040367;28;20025;-90
2022/07/27 02:24:40;;;;;;;2.30;1.85;;;14.10;99.90;;;;;;5037049;28;20037;-89
2022/07/27 02:27:05;;;;;;;4.60;1.98;;;14.10;99.90;;;;;;5043350;28;20021;-89
2022/07/27 02:29:31;;;;;;;4.20;1.50;;;14.00;99.90;;;;;;5041764;28;20033;-90
2022/07/27 02:31:57;;;;;;;6.82;1.85;;;14.10;99.90;;;;;;5038678;28;20059;-88
2022/07/27 02:34:22;;;;;;;4.20;1.55;;;14.00;99.90;;;;;;5045587;28;20030;-89
2022/07/27 02:36:48;;;;;;;5.20;1.63;;;14.00;99.90;;;;;;5040619;28;20051;-89
2022/07/27 02:39:14;;;;;;;5.10;1.73;;;14.00;99.90;;;;;;5050835;28;20041;-89
2022/07/27 02:41:40;;;;;;;4.55;1.50;;;13.90;99.90;;;;;;5038360;28;20462;-89
2022/07/27 02:44:05;;;;;;;1.95;1.35;;;13.90;99.90;;;;;;5040740;28;20026;-90
2022/07/27 02:46:31;;;;;;;3.60;1.50;;;13.90;99.90;;;;;;5036736;28;20025;-90
2022/07/27 02:48:57;;;;;;;1.75;1.20;;;13.80;99.90;;;;;;5043100;28;20540;-89
2022/07/27 02:51:22;;;;;;;4.53;1.70;;;13.70;99.90;;;;;;5032487;28;20026;-89
2022/07/27 02:53:49;;;;;;;3.75;1.48;;;13.60;99.90;;;;;;5037039;28;20433;-88
2022/07/27 02:56:14;;;;;;;7.28;1.48;;;13.60;99.90;;;;;;5038383;28;20056;-88
2022/07/27 02:58:40;;;;;;;3.75;1.80;;;13.50;99.90;;;;;;5030965;28;20076;-89
2022/07/27 03:03:40;;;;;;;5.50;1.30;;;13.40;99.90;;;;;;4994568;28;20050;-74
2022/07/27 03:06:06;;;;;;;3.78;1.73;;;13.30;99.90;;;;;;4990720;28;20104;-74
2022/07/27 03:08:33;;;;;;;4.22;1.60;;;13.20;99.90;;;;;;4993120;28;20165;-74
2022/07/27 03:10:59;;;;;;;5.30;1.85;;;13.20;99.90;;;;;;4990988;28;20038;-74
2022/07/27 03:13:25;;;;;;;3.35;1.70;;;13.10;99.90;;;;;;4990313;28;20041;-74
2022/07/27 03:15:51;;;;;;;3.25;1.23;;;13.00;99.90;;;;;;4990536;28;20112;-75
2022/07/27 03:18:17;;;;;;;5.18;1.75;;;13.00;99.90;;;;;;4990686;28;20093;-74
2022/07/27 03:20:42;;;;;;;3.33;1.40;;;12.90;99.90;;;;;;4990131;28;20026;-74
2022/07/27 03:23:08;;;;;;;3.05;1.45;;;12.80;99.90;;;;;;4989938;28;20026;-75
2022/07/27 03:25:34;;;;;;;2.05;1.60;;;12.80;99.90;;;;;;4988880;28;20490;-74
2022/07/27 03:28:00;;;;;;;2.47;1.77;;;12.70;99.90;;;;;;4991727;28;20021;-74
2022/07/27 03:30:25;;;;;;;4.25;1.55;;;12.60;99.90;;;;;;4994187;28;20030;-74
2022/07/27 03:32:51;;;;;;;5.55;1.85;;;12.50;99.90;;;;;;4994157;28;20025;-75
2022/07/27 03:35:17;;;;;;;2.67;1.50;;;12.50;99.90;;;;;;4993840;28;20030;-74
2022/07/27 03:37:42;;;;;;;3.85;1.40;;;12.40;99.90;;;;;;4995164;28;20103;-74
2022/07/27 03:40:10;;;;;;;3.97;1.42;;;12.50;99.90;;;;;;4992534;28;20084;-75
2022/07/27 03:42:36;;;;;;;6.13;2.25;;;12.40;99.90;;;;;;4993772;28;20018;-74
2022/07/27 03:45:03;;;;;;;4.88;1.50;;;12.40;99.90;;;;;;4993903;28;20037;-75
2022/07/27 03:47:29;;;;;;;3.63;1.70;;;12.50;99.90;;;;;;4993614;28;20037;-75
2022/07/27 03:49:54;;;;;;;4.07;1.55;;;12.40;99.90;;;;;;4993770;28;20018;-74
2022/07/27 03:52:20;;;;;;;3.00;1.73;;;12.50;99.90;;;;;;4993715;28;21376;-74
2022/07/27 03:54:47;;;;;;;2.85;1.67;;;12.50;99.90;;;;;;4992037;28;20070;-75
2022/07/27 03:57:13;;;;;;;3.97;1.52;;;12.40;99.90;;;;;;4993343;28;20391;-75
2022/07/27 03:59:39;;;;;;;7.18;1.95;;;12.40;99.90;;;;;;4993510;28;20061;-74
2022/07/27 04:02:05;;;;;;;3.00;1.75;;;12.40;99.90;;;;;;5018864;23;20228;-88
2022/07/27 04:04:30;;;;;;;3.92;2.00;;;12.50;99.90;;;;;;5033640;28;20055;-89
2022/07/27 04:06:56;;;;;;;4.25;1.65;;;12.40;99.90;;;;;;5048967;28;20455;-87
2022/07/27 04:09:22;;;;;;;2.25;1.52;;;12.50;99.90;;;;;;5033102;28;20029;-89
2022/07/27 04:11:48;;;;;;;6.47;1.85;;;12.50;99.90;;;;;;5038919;28;20021;-89
2022/07/27 04:14:16;;;;;;;5.55;2.35;;;12.60;99.90;;;;;;5052947;28;20074;-88
2022/07/27 04:16:42;;;;;;;5.78;1.88;;;12.60;99.90;;;;;;5052720;28;20525;-89
2022/07/27 04:19:08;;;;;;;5.43;1.70;;;12.60;99.90;;;;;;5053007;28;20076;-89
2022/07/27 04:21:34;;;;;;;6.90;2.40;;;12.70;99.90;;;;;;5053076;28;20747;-89
2022/07/27 04:24:00;;;;;;;5.95;1.65;;;12.70;99.90;;;;;;5052971;28;20515;-88
2022/07/27 04:26:27;;;;;;;3.25;1.77;;;12.80;99.90;;;;;;5051725;28;20036;-88
2022/07/27 04:28:52;;;;;;;2.00;1.33;;;12.80;99.90;;;;;;5053142;28;20028;-89
2022/07/27 04:31:18;;;;;;;2.40;1.50;;;12.90;99.90;;;;;;5053149;28;20128;-90
2022/07/27 04:33:44;;;;;;;3.72;1.77;;;12.90;99.90;;;;;;5053102;28;20104;-89
2022/07/27 04:36:09;;;;;;;3.38;1.63;;;12.90;99.90;;;;;;5053164;28;20382;-89
2022/07/27 04:38:35;;;;;;;4.90;1.83;;;12.90;99.90;;;;;;5052711;28;20047;-89
2022/07/27 04:41:01;;;;;;;5.03;1.75;;;13.00;99.90;;;;;;5053233;28;20068;-89
2022/07/27 04:43:27;;;;;;;3.58;1.50;;;13.00;99.90;;;;;;5052321;28;20031;-89
2022/07/27 04:45:52;;;;;;;1.50;1.40;;;13.00;99.90;;;;;;5052423;28;20551;-89
2022/07/27 04:48:18;;;;;;;3.65;1.55;;;13.10;99.90;;;;;;5052932;28;20034;-89
2022/07/27 04:50:46;;;;;;;2.05;1.48;;;13.10;99.90;;;;;;5052511;28;20013;-89
2022/07/27 04:53:13;;;;;;;3.42;1.67;;;13.20;99.90;;;;;;5052630;28;20013;-89
2022/07/27 04:55:43;;;;;;;6.70;1.30;;;13.20;99.90;;;;;;5052469;28;20151;-88
2022/07/27 04:58:10;;;;;;;3.00;1.60;;;13.30;99.90;;;;;;5045132;28;20500;-89
2022/07/27 05:00:36;;;;;;;4.20;1.45;;;13.30;99.90;;;;;;5052625;28;20017;-88
2022/07/27 05:03:03;;;;;;;2.78;1.38;;;13.30;99.90;;;;;;5045902;23;20046;-74
2022/07/27 05:05:29;;;;;;;3.15;1.63;;;13.40;99.90;;;;;;5011742;28;20040;-74
2022/07/27 05:07:55;;;;;;;1.95;1.42;;;13.40;99.90;;;;;;5010374;28;20026;-74
2022/07/27 05:10:20;;;;;;;2.92;1.30;;;13.50;99.90;;;;;;5011675;28;20387;-74
2022/07/27 05:12:47;;;;;;;2.30;1.55;;;13.50;99.90;;;;;;4998251;28;20030;-75
2022/07/27 05:15:13;;;;;;;1.83;1.35;;;13.60;99.90;;;;;;4991880;28;20029;-74
2022/07/27 05:17:39;;;;;;;4.60;1.80;;;13.50;99.90;;;;;;4991826;28;20026;-74
2022/07/27 05:20:05;;;;;;;3.65;1.50;;;13.50;99.90;;;;;;4991676;28;20022;-74
2022/07/27 05:22:31;;;;;;;3.95;1.90;;;13.60;99.90;;;;;;4991075;28;20499;-75
2022/07/27 05:24:56;;;;;;;3.58;1.60;;;13.60;99.90;;;;;;4991599;28;20571;-74
2022/07/27 05:27:22;;;;;;;2.38;1.48;;;13.70;99.90;;;;;;4991919;28;20026;-75
2022/07/27 05:29:48;;;;;;;4.15;1.70;;;13.70;99.90;;;;;;4991813;28;20033;-75
2022/07/27 05:32:14;;;;;;;2.10;1.45;;;13.80;99.90;;;;;;4991723;28;20022;-74
2022/07/27 05:34:40;;;;;;;4.05;1.60;;;13.80;99.90;;;;;;4991529;28;20430;-74
2022/07/27 05:37:07;;;;;;;3.08;1.70;;;13.70;99.90;;;;;;4991177;28;20026;-74
2022/07/27 05:39:32;;;;;;;3.88;1.83;;;13.70;99.90;;;;;;4991070;28;20045;-74
2022/07/27 05:41:58;;;;;;;6.80;1.63;;;13.70;99.90;;;;;;4991686;28;20022;-74
2022/07/27 05:44:24;;;;;;;2.15;1.30;;;13.70;99.90;;;;;;4991351;28;20018;-74
2022/07/27 05:46:49;;;;;;;1.42;1.20;;;13.80;99.90;;;;;;4991108;28;20113;-74
2022/07/27 05:49:16;;;;;;;3.70;1.40;;;13.80;99.90;;;;;;4991280;28;20031;-75
2022/07/27 05:51:42;;;;;;;3.58;1.45;;;13.90;99.90;;;;;;4991041;28;20064;-74
2022/07/27 05:54:08;;;;;;;6.03;1.38;;;14.00;99.90;;;;;;4991474;28;20475;-74
2022/07/27 05:56:34;;;;;;;4.45;1.95;;;14.10;99.90;;;;;;4990076;28;20126;-75
2022/07/27 05:59:00;;;;;;;4.70;1.88;;;14.20;99.90;;;;;;4991424;28;20569;-75
2022/07/27 06:01:26;;;;;;;3.72;1.50;;;14.50;99.90;;;;;;5010167;23;20029;-87
2022/07/27 06:03:52;;;;;;;4.68;1.40;;;14.60;99.90;;;;;;5013801;28;20625;-88
2022/07/27 06:09:02;;;;;;;2.13;1.15;;;15.00;99.90;;;;;;5011442;28;20114;-88
2022/07/27 06:11:28;;;;;;;3.85;1.50;;;15.20;99.90;;;;;;5011083;28;20121;-88
2022/07/27 06:13:54;;;;;;;5.90;1.40;;;15.30;99.90;;;;;;5010983;28;20086;-88
2022/07/27 06:16:20;;;;;;;2.58;1.20;;;15.50;99.90;;;;;;5009192;28;20037;-88
2022/07/27 06:18:46;;;;;;;1.58;1.00;;;15.60;99.90;;;;;;5010126;28;20080;-87
2022/07/27 06:21:12;;;;;;;3.55;1.33;;;15.70;99.90;;;;;;5009936;28;20021;-88
2022/07/27 06:23:37;;;;;;;2.35;0.70;;;15.80;99.90;;;;;;5011159;28;20017;-89
2022/07/27 06:26:03;;;;;;;4.10;1.48;;;16.00;99.90;;;;;;5009394;28;20076;-88
2022/07/27 06:28:29;;;;;;;1.70;1.17;;;16.20;99.90;;;;;;5010634;28;20033;-88
2022/07/27 06:30:55;;;;;;;3.47;1.02;;;16.40;99.90;;;;;;5009761;28;20069;-88
2022/07/27 06:33:26;;;;;;;4.60;1.30;;;16.60;99.90;;;;;;5010361;28;20022;-88
2022/07/27 06:35:59;;;;;;;2.53;1.13;;;16.80;99.90;;;;;;5010748;28;20434;-90
2022/07/27 06:38:25;;;;;;;3.08;1.15;;;17.00;99.90;;;;;;5011554;28;20042;-89
2022/07/27 06:40:52;;;;;;;4.35;1.25;;;17.10;99.90;;;;;;5010079;28;20018;-89
2022/07/27 06:43:22;;;;;;;1.10;1.00;;;17.20;99.90;;;;;;5010970;28;21518;-89
2022/07/27 06:45:48;;;;;;;5.18;1.50;;;17.40;99.90;;;;;;5011248;28;20022;-89
2022/07/27 06:48:14;;;;;;;1.10;1.00;;;17.40;99.90;;;;;;5011128;28;20093;-88
2022/07/27 06:50:41;;;;;;;2.28;0.90;;;17.50;99.90;;;;;;5010317;28;20030;-88
2022/07/27 06:53:06;;;;;;;7.32;1.45;;;17.60;99.90;;;;;;5009752;28;20021;-89
2022/07/27 06:55:33;;;;;;;2.60;1.10;;;17.60;99.90;;;;;;5010126;28;20041;-88
2022/07/27 06:57:58;;;;;;;5.43;1.00;;;17.70;99.90;;;;;;5010004;28;20050;-88
2022/07/27 07:00:25;;;;;;;1.70;0.90;;;17.70;99.90;;;;;;5009526;28;20502;-89
2022/07/27 07:02:59;;;;;;;4.63;1.23;;;17.80;99.90;;;;;;5035154;23;20042;-75
2022/07/27 07:05:25;;;;;;;2.33;0.93;;;17.90;99.90;;;;;;5020189;28;20026;-75
2022/07/27 07:07:51;;;;;;;6.25;1.20;;;18.00;99.90;;;;;;5016695;28;20080;-75
2022/07/27 07:10:18;;;;;;;2.15;0.98;;;18.00;99.90;;;;;;5013606;28;20443;-74
2022/07/27 07:12:45;;;;;;;2.80;0.95;;;18.10;99.90;;;;;;5018386;28;20084;-75
2022/07/27 07:15:12;;;;;;;1.90;0.85;;;18.20;99.90;;;;;;5014848;28;20018;-75
2022/07/27 07:17:38;;;;;;;6.25;0.82;;;18.20;99.90;;;;;;5012874;28;20064;-74
2022/07/27 07:20:05;;;;;;;4.05;1.13;;;18.30;99.90;;;;;;5011811;28;20079;-75
2022/07/27 07:22:33;;;;;;;4.70;1.00;;;18.40;99.90;;;;;;5012797;28;20025;-75
2022/07/27 07:25:02;;;;;;;2.25;0.60;;;18.50;99.90;;;;;;5012017;28;20113;-75
2022/07/27 07:27:28;;;;;;;2.25;0.90;;;18.60;99.90;;;;;;5013396;28;20025;-75
2022/07/27 07:29:54;;;;;;;1.85;0.60;;;18.80;99.90;;;;;;5013410;28;20014;-74
2022/07/27 07:32:23;;;;;;;1.75;0.50;;;18.80;99.90;;;;;;5011717;28;20109;-75
2022/07/27 07:34:49;;;;;;;2.38;0.60;;;18.90;99.90;;;;;;5012190;28;20485;-75
2022/07/27 07:37:17;;;;;;;1.08;0.55;;;19.00;99.90;;;;;;5011529;28;20040;-75
2022/07/27 07:39:43;;;;;;;0.73;0.65;;;19.00;99.90;;;;;;5013489;28;20040;-75
2022/07/27 07:42:08;;;;;;;2.15;0.77;;;19.20;99.90;;;;;;5013486;28;20100;-75
2022/07/27 07:44:34;;;;;;;3.40;0.40;;;19.30;99.90;;;;;;5012314;28;20030;-75
2022/07/27 07:47:00;;;;;;;4.20;1.13;;;19.40;99.90;;;;;;5013207;28;20096;-75
2022/07/27 07:49:26;;;;;;;2.10;0.50;;;19.70;99.90;;;;;;5013352;28;20032;-75
2022/07/27 07:51:51;;;;;;;0.55;0.40;;;20.00;99.90;;;;;;5013655;28;20021;-77
2022/07/27 07:54:17;;;;;;;0.75;0.38;;;20.10;99.90;;;;;;5012419;28;20101;-77
2022/07/27 07:56:43;;;;;;;3.65;0.40;;;20.50;99.90;;;;;;5013421;28;20467;-78
2022/07/27 07:59:09;;;;;;;1.65;0.50;;;20.60;99.90;;;;;;5006407;28;20041;-75
2022/07/27 08:01:35;;;;;;;0.38;0.32;;;20.80;99.90;;;;;;5038161;23;20025;-88
2022/07/27 08:04:00;;;;;;;0.57;0.30;;;20.90;98.40;;;;;;5041255;28;20098;-82
2022/07/27 08:06:27;;;;;;;0.93;0.50;;;20.90;98.80;;;;;;5033066;28;20072;-86
2022/07/27 08:08:53;;;;;;;2.22;0.63;;;21.00;98.40;;;;;;5032307;28;20017;-82
2022/07/27 08:11:18;;;;;;;2.97;0.40;;;21.20;97.90;;;;;;5032873;28;20071;-84
2022/07/27 08:13:44;;;;;;;0.65;0.40;;;21.40;97.20;;;;;;5032688;28;20553;-83
2022/07/27 08:16:10;;;;;;;1.65;0.35;;;21.30;93.90;;;;;;5032703;28;20021;-83
2022/07/27 08:18:36;;;;;;;2.42;0.40;;;21.20;92.30;;;;;;5032536;28;20033;-83
2022/07/27 08:21:02;;;;;;;1.13;0.52;;;21.30;94.00;;;;;;5032639;28;20021;-82
2022/07/27 08:23:28;;;;;;;2.67;0.50;;;21.30;92.00;;;;;;5032955;28;20022;-83
2022/07/27 08:25:53;;;;;;;1.05;0.43;;;21.50;91.80;;;;;;5032753;28;20028;-83
2022/07/27 08:28:19;;;;;;;1.88;0.43;;;21.40;91.60;;;;;;5032840;28;20064;-83
2022/07/27 08:30:45;;;;;;;2.63;0.85;;;21.40;91.00;;;;;;5032493;28;20022;-82
2022/07/27 08:33:11;;;;;;;2.58;0.45;;;21.40;88.80;;;;;;5032414;28;20021;-82
2022/07/27 08:35:37;;;;;;;3.30;0.32;;;21.60;89.20;;;;;;5031181;28;20017;-83
2022/07/27 08:38:06;;;;;;;1.58;0.30;;;21.60;81.20;;;;;;5032334;28;20032;-83
2022/07/27 08:40:32;;;;;;;0.88;0.40;;;21.70;82.00;;;;;;5032551;28;20029;-83
2022/07/27 08:43:00;;;;;;;2.45;0.40;;;22.00;81.80;;;;;;5032645;28;20370;-84
2022/07/27 08:45:26;;;;;;;0.98;0.30;;;22.30;76.40;;;;;;5032479;28;20054;-84
2022/07/27 08:47:51;;;;;;;2.00;0.50;;;22.40;74.80;;;;;;5032296;28;20025;-82
2022/07/27 08:50:23;;;;;;;2.85;0.40;;;22.60;74.00;;;;;;5032250;28;20374;-83
2022/07/27 08:52:51;;;;;;;2.03;0.55;;;22.60;71.80;;;;;;5026318;28;20018;-82
2022/07/27 08:55:17;;;;;;;2.78;0.50;;;22.50;75.00;;;;;;5032259;28;20025;-82
2022/07/27 08:57:43;;;;;;;1.42;0.20;;;22.80;72.90;;;;;;5031714;28;20018;-82
2022/07/27 09:00:10;;;;;;;1.10;0.40;;;22.70;70.30;;;;;;5031934;28;20040;-83
2022/07/27 09:02:37;;;;;;;0.82;0.22;;;22.80;66.10;;;;;;5049279;22;20051;-74
2022/07/27 09:05:04;;;;;;;2.17;0.47;;;23.00;65.10;;;;;;5011941;28;20113;-74
2022/07/27 09:07:30;;;;;;;1.27;0.38;;;23.20;64.10;;;;;;5012318;28;20060;-74
2022/07/27 09:09:56;;;;;;;2.35;0.50;;;23.20;64.70;;;;;;5026485;28;20022;-73
2022/07/27 09:12:29;;;;;;;0.40;0.35;;;23.30;66.70;;;;;;5011255;28;20029;-74
2022/07/27 09:15:10;;;;;;;1.02;0.30;;;23.40;61.90;;;;;;5011751;28;20022;-74
2022/07/27 09:17:39;;;;;;;1.85;0.82;;;23.20;62.20;;;;;;5011502;28;20018;-74
2022/07/27 09:20:15;;;;;;;2.88;0.60;;;23.00;66.20;;;;;;5011853;28;20486;-73
2022/07/27 09:22:51;;;;;;;2.17;0.45;;;22.60;65.40;;;;;;5011593;28;20021;-74
2022/07/27 09:25:29;;;;;;;0.80;0.50;;;22.40;64.70;;;;;;5010957;28;20026;-74
2022/07/27 09:27:58;;;;;;;2.10;0.40;;;22.30;66.60;;;;;;5011867;28;20014;-74
2022/07/27 09:30:28;;;;;;;1.17;0.50;;;22.20;68.40;;;;;;5011399;28;20057;-74
2022/07/27 09:33:03;;;;;;;1.60;0.40;;;22.50;67.80;;;;;;5014993;28;20018;-73
2022/07/27 09:35:34;;;;;;;3.60;0.75;;;22.20;79.40;;;;;;5003248;28;20036;-74
2022/07/27 09:38:19;;;;;;;3.45;0.60;;;22.10;78.70;;;;;;5011287;28;20550;-73
2022/07/27 09:40:48;;;;;;;1.73;0.40;;;21.90;81.00;;;;;;5011308;28;20026;-74
2022/07/27 09:43:14;;;;;;;3.13;0.50;;;21.50;82.10;;;;;;5011544;28;20418;-74
2022/07/27 09:45:45;;;;;;;4.88;0.70;;;21.30;90.20;;;;;;5011482;28;20026;-74
2022/07/27 09:48:13;;;;;;;2.30;0.52;;;21.00;88.70;;;;;;5011333;28;20348;-74
2022/07/27 09:50:45;;;;;;;3.17;0.60;;;20.80;94.40;;;;;;5011207;28;20021;-75
2022/07/27 09:53:15;;;;;;;;;;;20.80;97.30;;;;;;5011527;28;20021;-74
2022/07/27 09:55:42;;;;;;;2.08;0.63;;;20.90;91.10;;;;;;5011206;28;20374;-74
2022/07/27 09:58:07;;;;;;;1.67;0.40;;;21.10;91.00;;;;;;5010364;28;20022;-74
2022/07/27 10:00:33;;;;;;;2.78;0.70;;;21.40;90.10;;;;;;5007800;28;20475;-74
2022/07/27 10:03:00;;;;;;;1.33;0.50;;;21.10;77.50;;;;;;5044425;23;20041;-82
2022/07/27 10:05:25;;;;;;;0.65;0.40;;;21.20;78.00;;;;;;5029744;28;20056;-85
2022/07/27 10:07:53;;;;;;;2.00;0.50;;;21.30;81.30;;;;;;5031047;28;20064;-86
2022/07/27 10:10:19;;;;;;;0.50;0.45;;;21.50;78.00;;;;;;5030682;28;20028;-84
2022/07/27 10:12:46;;;;;;;2.80;0.50;;;21.50;74.10;;;;;;5030675;28;20021;-83
2022/07/27 10:15:12;;;;;;;3.67;0.60;;;21.40;77.50;;;;;;5030589;28;20108;-83
2022/07/27 10:17:42;;;;;;;1.33;0.52;;;21.30;78.80;;;;;;5030468;28;20105;-85
2022/07/27 10:20:10;;;;;;;3.13;0.60;;;21.30;79.00;;;;;;5030857;28;20040;-85
2022/07/27 10:22:52;;;;;;;3.78;0.93;;;21.40;76.20;;;;;;5030511;28;20017;-83
2022/07/27 10:25:20;;;;;;;0.80;0.30;;;21.50;80.90;;;;;;5030509;28;20025;-84
2022/07/27 10:27:48;;;;;;;1.50;0.43;;;21.40;73.00;;;;;;5030461;28;20022;-86
2022/07/27 10:30:16;;;;;;;2.08;0.45;;;21.60;76.10;;;;;;5030687;28;20702;-86
2022/07/27 10:32:43;;;;;;;2.78;0.47;;;21.80;76.10;;;;;;5030223;28;20028;-86
2022/07/27 10:35:35;;;;;;;3.47;0.70;;;21.90;74.20;;;;;;5030572;28;20652;-85
2022/07/27 10:38:15;;;;;;;1.58;0.90;;;21.90;70.70;;;;;;5033945;28;20064;-86
2022/07/27 10:40:42;;;;;;;0.60;0.60;;;22.10;72.40;;;;;;5034320;28;20029;-85
2022/07/27 10:43:20;;;;;;;3.25;0.50;;;22.50;70.20;;;;;;5034258;28;20092;-86
2022/07/27 10:45:48;;;;;;;1.25;0.47;;;22.60;67.80;;;;;;5034729;28;20029;-85
2022/07/27 10:48:36;;;;;;;2.78;0.35;;;23.00;66.40;;;;;;5034404;28;20478;-87
2022/07/27 10:51:07;;;;;;;2.25;0.35;;;23.10;65.30;;;;;;5028939;28;20096;-86
2022/07/27 10:53:38;;;;;;;2.95;0.52;;;23.50;64.00;;;;;;5034593;28;20009;-84
2022/07/27 10:56:05;;;;;;;2.42;0.50;;;24.10;62.30;;;;;;5034716;28;20091;-86
2022/07/27 10:58:31;;;;;;;2.92;0.68;;;24.30;61.10;;;;;;5033652;28;20034;-83
2022/07/27 11:01:00;;;;;;;1.02;0.40;;;25.20;56.40;;;;;;5034535;28;20068;-84
2022/07/27 11:03:34;;;;;;;2.78;0.50;;;25.40;54.90;;;;;;5039014;23;20041;-74
2022/07/27 11:06:06;;;;;;;0.25;0.22;;;24.90;56.50;;;;;;5014508;28;20062;-75
2022/07/27 11:08:44;;;;;;;2.42;0.47;;;25.20;55.90;;;;;;5013166;28;20026;-74
2022/07/27 11:11:17;;;;;;;1.08;0.28;;;26.40;51.50;;;;;;5030061;28;20060;-74
2022/07/27 11:13:43;;;;;;;1.58;0.52;;;26.70;48.90;;;;;;5007777;28;20518;-74
2022/07/27 11:16:12;;;;;;;3.17;0.50;;;27.10;50.40;;;;;;5014150;28;20022;-74
2022/07/27 11:18:40;;;;;;;0.43;0.30;;;27.70;48.30;;;;;;5013555;28;20064;-74
2022/07/27 11:21:16;;;;;;;0.88;0.30;;;27.70;45.50;;;;;;5013055;28;20524;-74
2022/07/27 11:23:48;;;;;;;3.58;0.40;;;27.60;47.30;;;;;;5006109;28;20030;-75
2022/07/27 11:26:14;;;;;;;1.08;0.40;;;28.20;47.50;;;;;;5013981;28;20026;-74
2022/07/27 11:28:40;;;;;;;1.08;0.30;;;28.20;45.30;;;;;;5013902;28;20390;-74
2022/07/27 11:31:08;;;;;;;0.52;0.22;;;27.60;46.50;;;;;;5014099;28;20014;-73
2022/07/27 11:33:34;;;;;;;5.47;0.50;;;27.80;45.80;;;;;;5016458;28;20041;-74
2022/07/27 11:36:02;;;;;;;2.15;0.40;;;27.30;48.20;;;;;;5013771;28;20022;-74
2022/07/27 11:38:28;;;;;;;2.33;0.40;;;28.20;44.80;;;;;;5013731;28;20025;-74
2022/07/27 11:40:54;;;;;;;2.05;0.40;;;28.50;42.40;;;;;;5013646;28;20064;-75
2022/07/27 11:43:41;;;;;;;1.63;0.70;;;27.40;43.20;;;;;;5012203;28;20143;-74
2022/07/27 11:46:21;;;;;;;1.05;0.30;;;26.50;46.70;;;;;;5013518;28;20495;-74
2022/07/27 11:49:05;;;;;;;0.40;0.40;;;25.90;46.30;;;;;;5010642;28;20045;-74
2022/07/27 11:51:31;;;;;;;0.80;0.47;;;25.90;49.20;;;;;;5013398;28;20035;-74
2022/07/27 11:53:59;;;;;;;2.63;0.70;;;25.90;49.30;;;;;;5013596;28;20025;-74
2022/07/27 11:56:28;;;;;;;0.52;0.40;;;26.50;48.30;;;;;;5007259;28;20034;-74
2022/07/27 11:59:09;;;;;;;3.53;0.30;;;28.20;43.70;;;;;;5012867;28;20049;-74
2022/07/27 12:04:17;;;;;;;2.22;0.25;;;31.80;36.60;;;;;;5014168;28;20034;-85
2022/07/27 12:06:46;;;;;;;3.00;0.52;;;33.60;35.40;;;;;;5013647;28;20033;-85
2022/07/27 12:09:15;;;;;;;3.00;0.40;;;33.50;34.70;;;;;;5013475;28;20033;-83
2022/07/27 12:11:58;;;;;;;2.08;0.45;;;33.30;32.60;;;;;;5013278;28;20156;-86
2022/07/27 12:14:41;;;;;;;2.05;0.50;;;33.90;29.90;;;;;;5013103;28;20061;-83
2022/07/27 12:17:14;;;;;;;2.55;0.85;;;33.00;31.30;;;;;;5012863;28;20029;-85
2022/07/27 12:19:41;;;;;;;1.75;0.22;;;33.00;33.30;;;;;;5012805;28;20487;-86
2022/07/27 12:22:08;;;;;;;0.40;0.32;;;33.50;31.40;;;;;;5012880;28;20014;-85
2022/07/27 12:24:37;;;;;;;1.98;0.30;;;33.80;31.00;;;;;;5012945;28;20105;-84
2022/07/27 12:27:14;;;;;;;0.88;0.30;;;34.00;30.40;;;;;;5012831;28;20022;-85
2022/07/27 12:29:58;;;;;;;2.75;0.30;;;34.50;29.60;;;;;;5011578;28;20026;-85
2022/07/27 12:32:25;;;;;;;0.50;0.28;;;34.90;28.40;;;;;;5014690;28;20057;-83
2022/07/27 12:34:52;;;;;;;2.33;0.38;;;33.80;29.10;;;;;;5012770;28;20014;-84
2022/07/27 12:37:18;;;;;;;1.60;0.52;;;32.40;29.30;;;;;;5005908;28;20030;-87
2022/07/27 12:39:45;;;;;;;1.25;0.60;;;32.40;29.40;;;;;;5012563;28;20095;-86
2022/07/27 12:42:12;;;;;;;1.55;0.40;;;32.00;29.20;;;;;;5012572;28;20025;-85
2022/07/27 12:44:40;;;;;;;0.68;0.40;;;31.60;31.00;;;;;;5012508;28;20025;-84
2022/07/27 12:50:03;;;;;;;0.75;0.40;;;30.60;31.10;;;;;;5012498;28;20033;-85
2022/07/27 12:52:29;;;;;;;1.25;0.40;;;29.70;32.80;;;;;;5012281;28;20037;-84
2022/07/27 12:54:55;;;;;;;1.15;0.28;;;30.40;33.00;;;;;;5012165;28;20022;-84
2022/07/27 12:57:21;;;;;;;0.47;0.30;;;31.50;31.90;;;;;;5012450;28;20018;-83
2022/07/27 12:59:47;;;;;;;1.75;0.52;;;31.90;30.10;;;;;;5015154;28;20026;-82
2022/07/27 13:02:13;;;;;;;1.70;0.32;;;32.10;30.00;;;;;;5042221;23;20041;-75
2022/07/27 13:04:39;;;;;;;0.85;0.28;;;32.00;28.90;;;;;;5051970;28;20049;-75